Time;durP1;ratioP1;P1;durP2;ratioP2;P2;SDS_P1;SDS_P2;PMS_P1;PMS_P2;Temp;Humidity;BMP_temperature;BMP_pressure;BME280_temperature;BME280_humidity;BME280_pressure;Samples;Min_cycle;Max_cycle;Signal;HPM_P1;HPM_P2
2023/07/23 00:01:33;;;;;;;12.35;8.27;;;15.80;99.90;;;;;;5093794;28;20208;-82
2023/07/23 00:04:00;;;;;;;11.57;7.97;;;15.80;99.90;;;;;;5093708;28;20300;-80
2023/07/23 00:06:26;;;;;;;11.82;7.47;;;15.80;99.90;;;;;;5094232;28;20209;-81
2023/07/23 00:08:53;;;;;;;11.57;8.23;;;15.90;99.90;;;;;;5094402;28;20279;-82
2023/07/23 00:11:21;;;;;;;10.88;7.97;;;15.70;99.90;;;;;;5095045;28;20193;-80
2023/07/23 00:13:48;;;;;;;13.98;8.32;;;15.80;99.90;;;;;;5095014;28;20216;-80
2023/07/23 00:16:15;;;;;;;13.48;8.27;;;15.60;99.90;;;;;;5095109;28;20300;-82
2023/07/23 00:18:42;;;;;;;12.50;8.10;;;15.60;99.90;;;;;;5095198;28;20667;-82
2023/07/23 00:21:08;;;;;;;11.20;7.82;;;15.60;99.90;;;;;;5094440;28;20210;-81
2023/07/23 00:23:35;;;;;;;12.65;8.57;;;15.70;99.90;;;;;;5078489;28;20237;-82
2023/07/23 00:26:03;;;;;;;12.23;8.57;;;15.70;99.90;;;;;;5092683;28;20289;-81
2023/07/23 00:28:31;;;;;;;13.00;8.98;;;15.50;99.90;;;;;;5089111;28;20221;-82
2023/07/23 00:30:58;;;;;;;13.25;9.10;;;15.50;99.90;;;;;;5094272;28;20208;-82
2023/07/23 00:33:25;;;;;;;12.75;9.18;;;15.50;99.90;;;;;;5089318;28;20217;-81
2023/07/23 00:35:52;;;;;;;13.43;8.95;;;15.50;99.90;;;;;;5078868;28;20204;-80
2023/07/23 00:38:18;;;;;;;13.40;9.15;;;15.60;99.90;;;;;;5089766;28;20190;-81
2023/07/23 00:40:46;;;;;;;14.02;9.25;;;15.60;99.90;;;;;;5081547;28;20271;-81
2023/07/23 00:43:12;;;;;;;15.50;10.48;;;15.60;99.90;;;;;;5093130;28;20244;-81
2023/07/23 00:45:41;;;;;;;14.25;9.05;;;15.60;99.90;;;;;;5093572;28;20213;-79
2023/07/23 00:48:08;;;;;;;14.25;10.02;;;15.60;99.90;;;;;;5092760;28;20201;-81
2023/07/23 00:50:35;;;;;;;17.40;10.57;;;15.50;99.90;;;;;;5093158;28;20673;-81
2023/07/23 00:53:02;;;;;;;14.85;9.45;;;15.50;99.90;;;;;;5093347;28;20213;-79
2023/07/23 00:55:28;;;;;;;22.67;12.68;;;15.70;99.90;;;;;;5093206;28;20209;-82
2023/07/23 00:57:55;;;;;;;19.95;11.80;;;15.60;99.90;;;;;;5093001;28;20215;-81
2023/07/23 01:00:22;;;;;;;19.67;11.60;;;15.50;99.90;;;;;;5092631;28;20676;-79
2023/07/23 01:02:50;;;;;;;19.75;11.63;;;15.40;99.90;;;;;;5093049;28;20227;-79
2023/07/23 01:05:18;;;;;;;26.30;21.35;;;15.40;99.90;;;;;;5091024;28;20205;-81
2023/07/23 01:07:48;;;;;;;25.75;22.08;;;15.30;99.90;;;;;;5090726;28;20220;-81
2023/07/23 01:10:15;;;;;;;20.55;15.55;;;15.20;99.90;;;;;;5093486;28;20222;-80
2023/07/23 01:12:43;;;;;;;18.33;11.95;;;15.40;99.90;;;;;;5093358;28;20229;-81
2023/07/23 01:15:10;;;;;;;17.13;12.32;;;15.50;99.90;;;;;;5092863;28;20201;-82
2023/07/23 01:17:39;;;;;;;14.55;10.23;;;15.50;99.90;;;;;;5092381;28;20209;-82
2023/07/23 01:20:09;;;;;;;15.32;10.40;;;15.50;99.90;;;;;;5093385;28;20203;-82
2023/07/23 01:22:38;;;;;;;15.43;10.02;;;15.40;99.90;;;;;;5092271;28;20225;-79
2023/07/23 01:25:06;;;;;;;17.27;10.43;;;15.40;99.90;;;;;;5092299;28;20225;-79
2023/07/23 01:27:32;;;;;;;16.13;10.68;;;15.40;99.90;;;;;;5091350;28;20211;-79
2023/07/23 01:29:59;;;;;;;14.38;10.50;;;15.40;99.90;;;;;;5091652;28;20224;-81
2023/07/23 01:32:26;;;;;;;15.95;10.13;;;15.50;99.90;;;;;;5092883;28;20586;-80
2023/07/23 01:34:55;;;;;;;13.82;9.68;;;15.50;99.90;;;;;;5095058;28;20205;-79
2023/07/23 01:37:23;;;;;;;16.10;10.95;;;15.50;99.90;;;;;;5094827;28;20201;-81
2023/07/23 01:39:51;;;;;;;15.50;10.57;;;15.50;99.90;;;;;;5094264;28;20193;-81
2023/07/23 01:42:18;;;;;;;15.80;10.38;;;15.50;99.90;;;;;;5086082;28;20222;-80
2023/07/23 01:44:45;;;;;;;16.45;10.27;;;15.60;99.90;;;;;;5083170;28;20204;-81
2023/07/23 01:47:12;;;;;;;14.10;10.63;;;15.70;99.90;;;;;;5095581;28;20194;-81
2023/07/23 01:49:40;;;;;;;14.00;9.40;;;15.50;99.90;;;;;;5096266;28;20709;-80
2023/07/23 01:52:08;;;;;;;16.48;10.88;;;15.50;99.90;;;;;;5096215;28;20218;-81
2023/07/23 01:54:34;;;;;;;19.08;11.68;;;15.40;99.90;;;;;;5096097;28;20224;-80
2023/07/23 01:57:03;;;;;;;13.70;9.68;;;15.40;99.90;;;;;;5095868;28;20205;-81
2023/07/23 01:59:30;;;;;;;17.45;11.00;;;15.50;99.90;;;;;;5090233;28;20189;-80
2023/07/23 02:01:57;;;;;;;31.95;11.60;;;15.50;99.90;;;;;;5094270;28;20214;-81
2023/07/23 02:04:23;;;;;;;14.23;10.18;;;15.50;99.90;;;;;;5083358;28;20206;-84
2023/07/23 02:06:50;;;;;;;17.70;10.32;;;15.60;99.90;;;;;;5090166;28;20205;-79
2023/07/23 02:09:17;;;;;;;15.70;10.30;;;15.40;99.90;;;;;;5095455;28;20228;-81
2023/07/23 02:11:44;;;;;;;14.90;10.05;;;15.50;99.90;;;;;;5081863;28;20226;-81
2023/07/23 02:14:12;;;;;;;15.27;9.98;;;15.40;99.90;;;;;;5076031;28;20212;-80
2023/07/23 02:16:38;;;;;;;17.00;10.77;;;15.40;99.90;;;;;;5074737;28;20240;-80
2023/07/23 02:19:05;;;;;;;16.15;10.20;;;15.40;99.90;;;;;;5089895;28;20208;-81
2023/07/23 02:21:32;;;;;;;14.48;10.32;;;15.40;99.90;;;;;;5089610;28;20198;-81
2023/07/23 02:23:59;;;;;;;15.05;10.10;;;15.40;99.90;;;;;;5095710;28;20193;-80
2023/07/23 02:26:26;;;;;;;15.80;10.27;;;15.30;99.90;;;;;;5095331;28;20607;-80
2023/07/23 02:28:52;;;;;;;14.05;9.45;;;15.30;99.90;;;;;;5095625;28;20591;-81
2023/07/23 02:31:21;;;;;;;13.82;9.32;;;15.30;99.90;;;;;;5095363;28;20568;-79
2023/07/23 02:33:47;;;;;;;15.25;9.50;;;15.40;99.90;;;;;;5075317;28;20301;-80
2023/07/23 02:36:14;;;;;;;14.43;9.27;;;15.20;99.90;;;;;;5087587;28;20212;-79
2023/07/23 02:38:42;;;;;;;16.17;10.50;;;15.10;99.90;;;;;;5092997;28;20778;-81
2023/07/23 02:41:09;;;;;;;15.10;9.82;;;15.20;99.90;;;;;;5095393;28;20197;-81
2023/07/23 02:43:36;;;;;;;15.93;10.25;;;15.20;99.90;;;;;;5095610;28;20312;-80
2023/07/23 02:46:03;;;;;;;16.52;10.35;;;15.20;99.90;;;;;;5095153;28;20194;-81
2023/07/23 02:48:31;;;;;;;16.40;10.18;;;15.20;99.90;;;;;;5094790;28;20202;-81
2023/07/23 02:50:57;;;;;;;16.25;9.93;;;15.30;99.90;;;;;;5095596;28;20217;-81
2023/07/23 02:53:26;;;;;;;15.82;9.88;;;15.20;99.90;;;;;;5095352;28;20217;-81
2023/07/23 02:55:53;;;;;;;17.92;10.82;;;15.20;99.90;;;;;;5095561;28;20201;-82
2023/07/23 02:58:19;;;;;;;18.15;10.60;;;15.10;99.90;;;;;;5094392;28;20205;-81
2023/07/23 03:00:46;;;;;;;17.27;10.73;;;15.20;99.90;;;;;;5093635;28;20225;-80
2023/07/23 03:03:13;;;;;;;17.52;10.68;;;15.20;99.90;;;;;;5095073;28;20236;-82
2023/07/23 03:05:43;;;;;;;19.85;10.77;;;15.10;99.90;;;;;;5095312;28;20589;-82
2023/07/23 03:08:10;;;;;;;17.38;10.70;;;15.20;99.90;;;;;;5095222;28;20258;-82
2023/07/23 03:10:36;;;;;;;18.42;10.52;;;15.10;99.90;;;;;;5094879;28;20225;-80
2023/07/23 03:13:03;;;;;;;17.80;10.48;;;15.10;99.90;;;;;;5095048;28;20243;-82
2023/07/23 03:15:30;;;;;;;19.05;10.32;;;15.10;99.90;;;;;;5095163;28;20197;-82
2023/07/23 03:17:57;;;;;;;19.83;11.48;;;15.10;99.90;;;;;;5094786;28;20201;-80
2023/07/23 03:20:24;;;;;;;18.77;12.00;;;15.10;99.90;;;;;;5090422;28;20198;-82
2023/07/23 03:22:52;;;;;;;22.35;13.70;;;15.20;99.90;;;;;;5089990;28;20224;-83
2023/07/23 03:25:19;;;;;;;19.08;11.80;;;15.20;99.90;;;;;;5094545;28;20205;-82
2023/07/23 03:27:46;;;;;;;18.63;12.65;;;15.20;99.90;;;;;;5094639;28;20201;-81
2023/07/23 03:30:13;;;;;;;14.30;10.32;;;15.00;99.90;;;;;;5094717;28;20703;-83
2023/07/23 03:32:41;;;;;;;14.90;10.18;;;15.10;99.90;;;;;;5095058;28;20229;-82
2023/07/23 03:35:08;;;;;;;19.10;10.98;;;15.10;99.90;;;;;;5094218;28;20591;-80
2023/07/23 03:37:34;;;;;;;15.77;10.05;;;15.10;99.90;;;;;;5082289;28;20221;-82
2023/07/23 03:40:03;;;;;;;14.70;9.95;;;15.10;99.90;;;;;;5072830;28;20203;-82
2023/07/23 03:42:29;;;;;;;15.52;9.57;;;15.20;99.90;;;;;;5087708;28;20231;-82
2023/07/23 03:44:56;;;;;;;16.27;9.80;;;15.10;99.90;;;;;;5087010;28;20212;-82
2023/07/23 03:47:23;;;;;;;16.90;10.20;;;15.20;99.90;;;;;;5090570;28;20197;-82
2023/07/23 03:49:50;;;;;;;15.32;9.88;;;15.10;99.90;;;;;;5078359;28;20218;-82
2023/07/23 03:52:17;;;;;;;15.43;9.80;;;15.20;99.90;;;;;;5077519;28;20232;-82
2023/07/23 03:54:43;;;;;;;14.27;9.52;;;15.20;99.90;;;;;;5073691;28;20202;-82
2023/07/23 03:57:12;;;;;;;16.20;10.40;;;15.10;99.90;;;;;;5088932;28;20229;-81
2023/07/23 03:59:40;;;;;;;15.65;10.15;;;15.10;99.90;;;;;;5094148;28;20202;-80
2023/07/23 04:02:07;;;;;;;15.10;9.93;;;15.20;99.90;;;;;;5093904;28;20222;-81
2023/07/23 04:04:35;;;;;;;16.05;9.30;;;15.20;99.90;;;;;;5094256;28;20205;-81
2023/07/23 04:07:02;;;;;;;16.45;10.07;;;15.20;99.90;;;;;;5092831;28;20200;-79
2023/07/23 04:09:29;;;;;;;13.57;9.10;;;15.30;99.90;;;;;;5093571;28;20228;-81
2023/07/23 04:11:56;;;;;;;16.95;10.15;;;15.20;99.90;;;;;;5093193;28;20249;-80
2023/07/23 04:14:25;;;;;;;15.00;9.88;;;15.20;99.90;;;;;;5093947;28;20208;-81
2023/07/23 04:16:54;;;;;;;17.50;9.48;;;15.20;99.90;;;;;;5093066;28;20736;-82
2023/07/23 04:19:21;;;;;;;15.32;9.85;;;15.30;99.90;;;;;;5082791;28;20198;-83
2023/07/23 04:21:47;;;;;;;15.93;8.73;;;15.40;99.90;;;;;;5082501;28;20228;-83
2023/07/23 04:24:14;;;;;;;17.30;9.75;;;15.50;99.90;;;;;;5094465;28;20197;-83
2023/07/23 04:26:41;;;;;;;14.05;9.18;;;15.50;99.90;;;;;;5093662;28;20210;-83
2023/07/23 04:29:09;;;;;;;13.82;8.52;;;15.40;99.90;;;;;;5073960;28;20301;-83
2023/07/23 04:31:37;;;;;;;14.70;8.52;;;15.40;99.90;;;;;;5092696;28;20724;-83
2023/07/23 04:34:04;;;;;;;13.07;8.32;;;15.40;99.90;;;;;;5094756;28;20224;-81
2023/07/23 04:36:31;;;;;;;14.77;7.72;;;15.20;99.90;;;;;;5093837;28;20190;-84
2023/07/23 04:39:00;;;;;;;12.15;7.47;;;15.40;99.90;;;;;;5093461;28;20198;-82
2023/07/23 04:41:27;;;;;;;10.85;7.93;;;15.30;99.90;;;;;;5093755;28;20204;-83
2023/07/23 04:43:54;;;;;;;11.65;7.22;;;15.40;99.90;;;;;;5093786;28;20203;-82
2023/07/23 04:46:21;;;;;;;10.95;6.80;;;15.40;99.90;;;;;;5084623;28;20256;-80
2023/07/23 04:48:49;;;;;;;10.90;6.90;;;15.30;99.90;;;;;;5085179;28;20285;-80
2023/07/23 04:51:16;;;;;;;11.55;6.78;;;15.20;99.90;;;;;;5080383;28;20217;-81
2023/07/23 04:53:43;;;;;;;12.30;7.10;;;15.20;99.90;;;;;;5080279;28;20214;-80
2023/07/23 04:56:10;;;;;;;13.25;7.35;;;15.30;99.90;;;;;;5076518;28;20277;-81
2023/07/23 04:58:36;;;;;;;14.95;7.70;;;15.30;99.90;;;;;;5078836;28;20202;-81
2023/07/23 05:01:09;;;;;;;13.70;6.50;;;15.40;99.90;;;;;;5085546;28;20201;-81
2023/07/23 05:03:36;;;;;;;17.45;7.82;;;15.30;99.90;;;;;;5077560;28;20272;-82
2023/07/23 05:06:05;;;;;;;14.23;6.82;;;15.50;99.90;;;;;;5080238;28;20212;-81
2023/07/23 05:08:32;;;;;;;17.58;7.35;;;15.60;99.90;;;;;;5086588;28;20661;-82
2023/07/23 05:11:01;;;;;;;13.48;7.18;;;15.40;99.90;;;;;;5088387;28;20774;-81
2023/07/23 05:13:29;;;;;;;10.05;6.63;;;15.50;99.90;;;;;;5089940;28;20226;-82
2023/07/23 05:15:56;;;;;;;14.05;7.15;;;15.50;99.90;;;;;;5082691;28;20704;-82
2023/07/23 05:18:24;;;;;;;10.10;6.82;;;15.60;99.90;;;;;;5093529;28;20202;-81
2023/07/23 05:20:50;;;;;;;10.60;6.60;;;15.50;99.90;;;;;;5094918;28;20208;-81
2023/07/23 05:23:19;;;;;;;13.98;7.70;;;15.60;99.90;;;;;;5091309;28;20232;-80
2023/07/23 05:25:46;;;;;;;14.32;6.90;;;15.60;99.90;;;;;;5089121;28;20205;-80
2023/07/23 05:28:13;;;;;;;14.27;7.18;;;15.50;99.90;;;;;;5082682;28;20213;-78
2023/07/23 05:30:40;;;;;;;10.93;6.07;;;15.70;99.90;;;;;;5082035;28;20232;-78
2023/07/23 05:33:07;;;;;;;10.27;6.05;;;15.80;99.90;;;;;;5085236;28;20225;-81
2023/07/23 05:35:34;;;;;;;9.15;5.55;;;15.70;99.90;;;;;;5092713;28;20194;-79
2023/07/23 05:38:01;;;;;;;10.85;6.25;;;15.70;99.90;;;;;;5082560;28;20210;-78
2023/07/23 05:40:30;;;;;;;8.30;5.82;;;15.80;99.90;;;;;;5090349;28;20193;-78
2023/07/23 05:42:57;;;;;;;9.57;6.10;;;15.80;99.90;;;;;;5091357;28;20701;-79
2023/07/23 05:45:24;;;;;;;12.63;6.55;;;15.80;99.90;;;;;;5093274;28;20201;-79
2023/07/23 05:47:51;;;;;;;14.10;6.50;;;15.80;99.90;;;;;;5078082;28;20255;-80
2023/07/23 05:50:17;;;;;;;8.52;5.82;;;15.90;99.90;;;;;;5083025;28;20226;-82
2023/07/23 05:52:44;;;;;;;10.55;5.65;;;15.80;99.90;;;;;;5082197;28;20247;-81
2023/07/23 05:55:11;;;;;;;10.98;6.82;;;15.90;99.90;;;;;;5088881;28;20243;-82
2023/07/23 05:57:39;;;;;;;9.98;5.70;;;15.90;99.90;;;;;;5092132;28;20210;-83
2023/07/23 06:00:07;;;;;;;11.52;5.95;;;16.00;99.90;;;;;;5095946;28;20206;-82
2023/07/23 06:02:34;;;;;;;9.70;6.38;;;16.10;99.90;;;;;;5093932;28;20230;-83
2023/07/23 06:05:01;;;;;;;11.32;6.97;;;16.20;99.90;;;;;;5088656;28;20221;-83
2023/07/23 06:07:28;;;;;;;8.88;5.78;;;16.20;99.90;;;;;;5091272;28;20281;-81
2023/07/23 06:09:55;;;;;;;9.60;5.68;;;16.50;99.90;;;;;;5084413;28;20260;-82
2023/07/23 06:12:22;;;;;;;8.48;5.68;;;16.60;99.90;;;;;;5078087;28;20222;-82
2023/07/23 06:14:50;;;;;;;9.68;5.00;;;16.60;99.90;;;;;;5093801;28;20713;-81
2023/07/23 06:17:17;;;;;;;9.30;5.65;;;16.80;99.90;;;;;;5082508;28;20232;-81
2023/07/23 06:19:44;;;;;;;9.40;5.85;;;16.90;99.90;;;;;;5093933;28;20213;-83
2023/07/23 06:22:12;;;;;;;7.30;5.63;;;17.00;99.90;;;;;;5076511;28;20218;-82
2023/07/23 06:24:39;;;;;;;8.32;5.30;;;17.10;99.90;;;;;;5080435;28;20206;-81
2023/07/23 06:27:07;;;;;;;7.72;5.45;;;17.00;99.90;;;;;;5088326;28;20631;-81
2023/07/23 06:29:33;;;;;;;9.35;5.10;;;17.20;99.90;;;;;;5090821;28;20569;-80
2023/07/23 06:32:01;;;;;;;8.32;4.85;;;17.50;99.90;;;;;;5087904;28;20610;-80
2023/07/23 06:34:28;;;;;;;8.20;4.90;;;17.70;99.90;;;;;;5092447;28;20200;-81
2023/07/23 06:36:55;;;;;;;9.63;5.20;;;17.70;99.90;;;;;;5089543;28;20209;-80
2023/07/23 06:39:22;;;;;;;7.88;4.93;;;17.80;99.90;;;;;;5080307;28;20197;-83
2023/07/23 06:41:49;;;;;;;8.30;5.18;;;17.80;99.90;;;;;;5087116;28;20232;-83
2023/07/23 06:44:15;;;;;;;8.45;4.80;;;17.80;99.90;;;;;;5085429;28;20201;-82
2023/07/23 06:46:42;;;;;;;8.60;4.93;;;17.90;99.90;;;;;;5083986;28;20670;-80
2023/07/23 06:49:12;;;;;;;9.05;5.30;;;17.80;99.90;;;;;;5085491;28;20208;-80
2023/07/23 06:51:39;;;;;;;8.60;5.30;;;17.80;99.90;;;;;;5092672;28;21205;-83
2023/07/23 06:54:06;;;;;;;10.30;5.63;;;17.90;99.90;;;;;;5093953;28;20209;-82
2023/07/23 06:56:33;;;;;;;9.48;5.18;;;18.10;99.90;;;;;;5090305;28;20205;-79
2023/07/23 06:59:00;;;;;;;6.55;4.40;;;18.10;99.90;;;;;;5095521;28;20212;-83
2023/07/23 07:01:27;;;;;;;11.10;7.93;;;18.20;99.90;;;;;;5092475;28;20581;-81
2023/07/23 07:03:56;;;;;;;8.13;5.50;;;18.20;99.90;;;;;;5085402;28;20729;-83
2023/07/23 07:06:24;;;;;;;6.07;5.00;;;18.30;99.90;;;;;;5095576;28;20210;-85
2023/07/23 07:08:51;;;;;;;6.75;4.70;;;18.40;99.90;;;;;;5078338;28;20206;-82
2023/07/23 07:11:17;;;;;;;9.20;5.18;;;18.40;99.90;;;;;;5097428;28;20209;-80
2023/07/23 07:13:44;;;;;;;6.65;4.65;;;18.40;99.90;;;;;;5091568;28;20308;-80
2023/07/23 07:16:11;;;;;;;8.20;4.97;;;18.50;99.90;;;;;;5087200;28;20201;-82
2023/07/23 07:18:38;;;;;;;5.53;3.90;;;18.50;99.90;;;;;;5078340;28;20201;-82
2023/07/23 07:21:05;;;;;;;6.60;4.90;;;18.50;99.90;;;;;;5082179;28;20197;-82
2023/07/23 07:23:33;;;;;;;6.28;4.63;;;18.70;99.90;;;;;;5086849;28;20216;-84
2023/07/23 07:26:01;;;;;;;6.75;4.65;;;18.80;99.90;;;;;;5089867;28;20204;-81
2023/07/23 07:28:30;;;;;;;6.55;4.22;;;19.00;99.90;;;;;;5088301;28;20651;-80
2023/07/23 07:31:01;;;;;;;8.18;4.70;;;19.00;99.90;;;;;;5075754;28;20587;-81
2023/07/23 07:33:28;;;;;;;6.90;4.57;;;19.10;99.90;;;;;;5077277;28;20220;-83
2023/07/23 07:35:55;;;;;;;9.35;4.47;;;19.20;99.90;;;;;;5089469;28;20198;-82
2023/07/23 07:38:23;;;;;;;6.97;4.90;;;19.20;99.90;;;;;;5093369;28;20201;-83
2023/07/23 07:40:52;;;;;;;8.00;4.38;;;19.40;99.90;;;;;;5085511;28;20205;-81
2023/07/23 07:43:19;;;;;;;7.05;4.85;;;19.50;99.90;;;;;;5081657;28;20738;-80
2023/07/23 07:45:48;;;;;;;5.40;4.60;;;19.60;99.90;;;;;;5086958;28;20206;-81
2023/07/23 07:48:16;;;;;;;6.20;4.35;;;19.70;99.90;;;;;;5089270;28;20650;-81
2023/07/23 07:50:43;;;;;;;17.60;4.60;;;19.90;99.90;;;;;;5088380;28;20214;-81
2023/07/23 07:53:10;;;;;;;5.80;4.40;;;20.00;99.90;;;;;;5083964;28;20229;-81
2023/07/23 07:55:41;;;;;;;7.90;4.55;;;20.10;99.90;;;;;;5080426;28;20205;-81
2023/07/23 07:58:12;;;;;;;4.93;4.07;;;20.10;99.90;;;;;;5088489;28;20207;-81
2023/07/23 08:00:40;;;;;;;8.18;4.28;;;20.20;99.90;;;;;;5086748;28;20252;-82
2023/07/23 08:03:08;;;;;;;7.40;4.63;;;20.00;99.90;;;;;;5082826;28;20225;-81
2023/07/23 08:05:36;;;;;;;5.75;4.28;;;20.10;99.90;;;;;;5087219;28;20654;-83
2023/07/23 08:08:04;;;;;;;6.47;4.10;;;20.10;99.90;;;;;;5093932;28;20233;-83
2023/07/23 08:10:33;;;;;;;22.60;16.33;;;20.20;99.90;;;;;;5081930;28;20210;-84
2023/07/23 08:13:01;;;;;;;9.30;6.38;;;20.10;99.90;;;;;;5095824;28;20618;-81
2023/07/23 08:15:32;;;;;;;7.07;4.47;;;20.20;99.90;;;;;;5088420;28;20224;-82
2023/07/23 08:17:59;;;;;;;7.03;4.53;;;20.40;99.90;;;;;;5086112;28;20198;-82
2023/07/23 08:20:28;;;;;;;5.20;4.30;;;20.50;99.90;;;;;;5090383;28;20201;-82
2023/07/23 08:22:55;;;;;;;5.53;3.83;;;20.60;99.90;;;;;;5083115;28;20218;-80
2023/07/23 08:25:23;;;;;;;7.28;4.30;;;20.70;99.90;;;;;;5090973;28;20214;-83
2023/07/23 08:27:52;;;;;;;5.28;4.20;;;20.90;99.90;;;;;;5088030;28;20211;-80
2023/07/23 08:30:21;;;;;;;7.40;4.57;;;21.00;99.90;;;;;;5084787;28;20198;-82
2023/07/23 08:32:52;;;;;;;7.30;4.82;;;21.10;99.90;;;;;;5089132;28;20234;-83
2023/07/23 08:35:19;;;;;;;8.23;4.30;;;21.30;99.90;;;;;;5087422;28;20204;-83
2023/07/23 08:37:46;;;;;;;6.53;4.03;;;21.30;99.90;;;;;;5092575;28;20205;-83
2023/07/23 08:40:14;;;;;;;6.60;4.22;;;21.20;99.90;;;;;;5081534;28;20202;-82
2023/07/23 08:43:18;;;;;;;6.75;4.65;;;21.40;99.90;;;;;;5074467;28;20214;-83
2023/07/23 08:46:18;;;;;;;5.55;4.13;;;21.50;99.90;;;;;;5093141;28;20213;-83
2023/07/23 08:49:04;;;;;;;6.20;3.95;;;21.50;99.90;;;;;;5094115;28;20233;-82
2023/07/23 08:51:34;;;;;;;8.00;3.80;;;21.60;99.90;;;;;;5096514;28;20216;-83
2023/07/23 08:54:02;;;;;;;5.07;4.05;;;21.60;99.90;;;;;;5096085;28;20212;-83
2023/07/23 08:56:29;;;;;;;7.07;4.03;;;21.50;99.90;;;;;;5095792;28;20215;-83
2023/07/23 08:58:58;;;;;;;4.75;3.83;;;21.40;99.90;;;;;;5097604;28;20206;-84
2023/07/23 09:01:26;;;;;;;5.63;3.90;;;21.50;99.90;;;;;;5096501;28;20371;-84
2023/07/23 09:03:54;;;;;;;4.28;3.55;;;21.60;99.90;;;;;;5096174;28;20292;-82
2023/07/23 09:06:21;;;;;;;5.65;4.15;;;21.60;99.90;;;;;;5094988;28;20650;-83
2023/07/23 09:08:48;;;;;;;6.82;5.22;;;21.70;99.90;;;;;;5093577;28;20591;-83
2023/07/23 09:11:14;;;;;;;6.00;3.30;;;21.80;99.90;;;;;;5081294;28;20218;-82
2023/07/23 09:13:41;;;;;;;4.95;3.17;;;21.80;99.90;;;;;;5081460;28;20223;-82
2023/07/23 09:16:08;;;;;;;6.03;3.50;;;21.90;99.90;;;;;;5081765;28;20214;-82
2023/07/23 09:18:40;;;;;;;4.85;3.42;;;21.90;99.90;;;;;;5082493;28;20201;-82
2023/07/23 09:21:10;;;;;;;5.40;3.10;;;21.90;99.90;;;;;;5075698;28;20194;-81
2023/07/23 09:23:36;;;;;;;5.80;2.88;;;21.90;99.90;;;;;;5085798;28;20252;-83
2023/07/23 09:26:03;;;;;;;5.55;3.30;;;21.90;99.90;;;;;;5091787;28;20210;-83
2023/07/23 09:28:30;;;;;;;4.15;3.20;;;21.90;99.90;;;;;;5076871;28;20852;-81
2023/07/23 09:31:00;;;;;;;4.97;2.97;;;21.90;99.90;;;;;;5085141;28;20613;-82
2023/07/23 09:33:33;;;;;;;4.90;3.00;;;22.00;99.90;;;;;;5076442;28;20217;-84
2023/07/23 09:36:02;;;;;;;3.35;2.72;;;22.00;99.90;;;;;;5082417;28;20208;-82
2023/07/23 09:38:31;;;;;;;4.32;3.13;;;22.00;99.90;;;;;;5080829;28;20194;-80
2023/07/23 09:40:58;;;;;;;3.40;2.75;;;22.10;99.90;;;;;;5090033;28;20194;-83
2023/07/23 09:43:25;;;;;;;4.28;3.20;;;22.10;99.90;;;;;;5085136;28;20245;-81
2023/07/23 09:45:52;;;;;;;4.65;3.40;;;22.10;99.90;;;;;;5092278;28;20202;-81
2023/07/23 09:48:20;;;;;;;3.92;2.90;;;22.10;99.90;;;;;;5081938;28;20198;-83
2023/07/23 09:50:50;;;;;;;4.57;2.92;;;22.10;99.90;;;;;;5081647;28;20207;-81
2023/07/23 09:53:17;;;;;;;3.88;3.33;;;22.10;99.90;;;;;;5089350;28;20221;-82
2023/07/23 09:55:46;;;;;;;7.30;3.83;;;21.90;99.90;;;;;;5086889;28;20213;-82
2023/07/23 09:58:16;;;;;;;4.15;3.00;;;22.20;99.90;;;;;;5086843;28;20329;-82
2023/07/23 10:00:44;;;;;;;3.78;2.78;;;22.30;99.90;;;;;;5088114;28;20228;-82
2023/07/23 10:03:14;;;;;;;4.18;3.38;;;22.10;83.30;;;;;;5092754;28;20218;-83
2023/07/23 10:05:41;;;;;;;4.32;2.63;;;22.30;99.90;;;;;;5093545;28;20862;-83
2023/07/23 10:08:09;;;;;;;5.03;3.15;;;22.30;97.70;;;;;;5090826;28;20193;-81
2023/07/23 10:10:36;;;;;;;3.63;3.03;;;22.40;71.80;;;;;;5090949;28;20201;-81
2023/07/23 10:13:05;;;;;;;3.55;3.10;;;22.40;85.90;;;;;;5091389;28;20229;-82
2023/07/23 10:15:33;;;;;;;4.03;2.90;;;22.50;82.20;;;;;;5088925;28;20202;-83
2023/07/23 10:18:02;;;;;;;5.10;3.30;;;22.60;74.50;;;;;;5087383;28;20649;-82
2023/07/23 10:20:31;;;;;;;4.00;3.03;;;22.70;58.30;;;;;;5080128;28;20209;-81
2023/07/23 10:22:58;;;;;;;3.80;3.20;;;22.70;45.20;;;;;;5083917;28;20225;-80
2023/07/23 10:25:31;;;;;;;5.30;3.03;;;22.80;44.60;;;;;;5084387;28;20685;-80
2023/07/23 10:28:00;;;;;;;4.45;3.30;;;22.90;33.00;;;;;;5083322;28;20822;-81
2023/07/23 10:30:29;;;;;;;3.97;3.13;;;22.80;52.70;;;;;;5085757;28;20202;-80
2023/07/23 10:33:30;;;;;;;6.05;3.42;;;23.00;48.00;;;;;;5075091;28;20230;-80
2023/07/23 10:36:02;;;;;;;5.40;3.35;;;23.30;35.80;;;;;;5083657;28;20204;-81
2023/07/23 10:38:31;;;;;;;4.10;3.30;;;23.10;22.00;;;;;;5081043;28;20233;-80
2023/07/23 10:40:58;;;;;;;6.93;3.65;;;23.10;38.10;;;;;;5083207;28;20228;-80
2023/07/23 10:43:36;;;;;;;6.53;3.72;;;23.10;28.70;;;;;;5086610;28;20213;-82
2023/07/23 10:46:06;;;;;;;4.05;3.30;;;23.10;25.60;;;;;;5084980;28;20201;-79
2023/07/23 10:48:45;;;;;;;4.53;3.35;;;23.10;28.10;;;;;;5089172;28;20229;-80
2023/07/23 10:51:13;;;;;;;5.30;3.47;;;23.00;37.60;;;;;;5092026;28;20201;-81
2023/07/23 10:53:42;;;;;;;4.47;3.33;;;22.90;44.30;;;;;;5086790;28;20317;-82
2023/07/23 10:56:24;;;;;;;4.85;3.30;;;23.00;49.90;;;;;;5090116;28;20202;-82
2023/07/23 10:58:51;;;;;;;6.18;3.15;;;22.90;57.00;;;;;;5085041;28;20568;-81
2023/07/23 11:01:25;;;;;;;5.30;3.83;;;22.60;15.50;;;;;;5088501;28;20205;-82
2023/07/23 11:03:56;;;;;;;4.03;3.08;;;22.60;16.60;;;;;;5090391;28;20205;-81
2023/07/23 11:06:33;;;;;;;5.47;3.33;;;22.60;5.00;;;;;;5092604;28;20206;-81
2023/07/23 11:09:04;;;;;;;3.03;2.72;;;22.80;18.80;;;;;;5087020;28;20614;-81
2023/07/23 11:11:36;;;;;;;3.70;2.95;;;22.70;25.40;;;;;;5091618;28;20553;-83
2023/07/23 11:14:05;;;;;;;4.80;3.88;;;22.80;26.20;;;;;;5089799;28;20205;-82
2023/07/23 11:16:36;;;;;;;4.03;3.20;;;22.80;12.20;;;;;;5090148;28;20194;-82
2023/07/23 11:19:07;;;;;;;4.68;2.50;;;22.60;4.50;;;;;;5092363;28;20626;-82
2023/07/23 11:21:34;;;;;;;4.05;2.60;;;22.70;7.90;;;;;;5082264;28;20376;-81
2023/07/23 11:24:02;;;;;;;5.85;2.85;;;22.60;1.00;;;;;;5092140;28;20212;-81
2023/07/23 11:26:29;;;;;;;5.28;2.72;;;22.90;1.00;;;;;;5086055;28;20221;-80
2023/07/23 11:28:56;;;;;;;4.68;3.00;;;22.90;10.90;;;;;;5093022;28;20201;-80
2023/07/23 11:31:25;;;;;;;5.30;2.67;;;23.20;11.20;;;;;;5088351;28;20204;-81
2023/07/23 11:33:53;;;;;;;3.00;2.70;;;22.90;1.00;;;;;;5093000;28;20210;-81
2023/07/23 11:36:21;;;;;;;5.03;2.95;;;22.70;6.80;;;;;;5089864;28;20715;-80
2023/07/23 11:38:53;;;;;;;4.32;2.85;;;22.70;1.00;;;;;;5084798;28;20590;-80
2023/07/23 11:41:20;;;;;;;5.13;3.28;;;22.60;5.20;;;;;;5093380;28;20205;-81
2023/07/23 11:43:47;;;;;;;3.60;2.88;;;22.50;1.00;;;;;;5090438;28;20230;-80
2023/07/23 11:46:18;;;;;;;5.20;3.00;;;22.30;1.00;;;;;;5080608;28;20327;-79
2023/07/23 11:48:45;;;;;;;4.72;3.13;;;22.30;1.00;;;;;;5084834;28;20205;-81
2023/07/23 11:51:13;;;;;;;4.28;3.33;;;22.40;9.10;;;;;;5075398;28;20190;-79
2023/07/23 11:53:40;;;;;;;4.45;3.17;;;22.20;1.00;;;;;;5089645;28;20240;-80
2023/07/23 11:56:09;;;;;;;6.13;3.17;;;22.40;4.40;;;;;;5087073;28;20197;-82
2023/07/23 11:58:37;;;;;;;3.33;3.03;;;22.50;14.80;;;;;;5085345;28;20202;-81
2023/07/23 12:01:05;;;;;;;4.97;2.80;;;22.60;21.60;;;;;;5080189;28;20285;-81
2023/07/23 12:03:34;;;;;;;3.60;3.08;;;22.50;14.80;;;;;;5082799;28;20210;-80
2023/07/23 12:06:01;;;;;;;4.25;2.85;;;22.60;21.10;;;;;;5092916;28;20626;-80
2023/07/23 12:08:30;;;;;;;3.50;2.63;;;22.50;21.20;;;;;;5083602;28;20194;-81
2023/07/23 12:10:57;;;;;;;5.05;3.35;;;22.70;32.20;;;;;;5079749;28;20568;-80
2023/07/23 12:13:26;;;;;;;7.00;3.00;;;22.80;47.00;;;;;;5091073;28;20230;-81
2023/07/23 12:15:57;;;;;;;4.65;3.22;;;22.90;49.00;;;;;;5092102;28;20210;-81
2023/07/23 12:18:27;;;;;;;5.28;2.70;;;23.00;53.80;;;;;;5071305;28;20210;-81
2023/07/23 12:20:58;;;;;;;4.55;2.72;;;22.70;60.00;;;;;;5073553;28;20215;-80
2023/07/23 12:23:25;;;;;;;5.15;2.83;;;22.50;49.40;;;;;;5080066;28;20704;-81
2023/07/23 12:25:53;;;;;;;4.60;3.33;;;22.50;57.00;;;;;;5071769;28;20202;-81
2023/07/23 12:28:24;;;;;;;4.32;2.83;;;22.80;88.70;;;;;;5088376;28;20213;-80
2023/07/23 12:30:51;;;;;;;5.40;2.88;;;22.80;78.00;;;;;;5079696;28;20206;-81
2023/07/23 12:33:18;;;;;;;4.18;2.47;;;22.80;83.30;;;;;;5071648;28;20267;-81
2023/07/23 12:35:44;;;;;;;3.65;2.33;;;22.90;94.40;;;;;;5078880;28;20250;-81
2023/07/23 12:38:11;;;;;;;3.50;1.90;;;22.90;93.10;;;;;;5072473;28;20253;-81
2023/07/23 12:40:38;;;;;;;2.97;2.05;;;22.90;90.70;;;;;;5072814;28;20202;-81
2023/07/23 12:43:06;;;;;;;3.45;1.98;;;22.50;91.90;;;;;;5081181;28;20701;-81
2023/07/23 12:45:36;;;;;;;5.60;2.00;;;22.30;93.70;;;;;;5082153;28;20236;-81